createdAt,value
2022-10-15T00:01:15.294Z,17.40
2022-10-15T00:06:52.942Z,17.30
2022-10-15T00:09:39.490Z,17.30
2022-10-15T00:12:25.231Z,17.30
2022-10-15T00:15:11.589Z,17.30
2022-10-15T00:17:58.057Z,17.30
2022-10-15T00:20:44.049Z,17.30
2022-10-15T00:23:31.151Z,17.30
2022-10-15T00:26:19.982Z,17.20
2022-10-15T00:29:05.949Z,17.20
2022-10-15T00:31:52.247Z,17.20
2022-10-15T00:34:37.894Z,17.20
2022-10-15T00:37:24.385Z,17.20
2022-10-15T00:40:11.726Z,17.30
2022-10-15T00:42:57.113Z,17.20
2022-10-15T00:45:43.461Z,17.00
2022-10-15T00:48:31.670Z,17.10
2022-10-15T00:51:19.623Z,16.90
2022-10-15T00:54:05.630Z,17.00
2022-10-15T00:56:51.322Z,17.10
2022-10-15T00:59:41.798Z,17.00
2022-10-15T01:02:27.758Z,17.00
2022-10-15T01:05:16.333Z,17.00
2022-10-15T01:08:02.282Z,17.00
2022-10-15T01:11:05.445Z,17.00
2022-10-15T01:14:15.303Z,17.00
2022-10-15T01:17:11.851Z,17.00
2022-10-15T01:20:52.006Z,17.00
2022-10-15T01:24:05.245Z,17.00
2022-10-15T01:27:16.081Z,17.00
2022-10-15T01:30:12.897Z,17.00
2022-10-15T01:33:26.105Z,17.00
2022-10-15T01:36:18.057Z,16.90
2022-10-15T01:39:27.586Z,17.00
2022-10-15T01:42:26.944Z,16.90
2022-10-15T01:45:20.199Z,16.90
2022-10-15T01:48:34.998Z,16.90
2022-10-15T01:51:21.843Z,16.90
2022-10-15T01:54:12.199Z,16.80
2022-10-15T01:56:59.573Z,16.80
2022-10-15T01:59:45.985Z,16.80
2022-10-15T02:02:32.813Z,16.80
2022-10-15T02:05:26.924Z,16.90
2022-10-15T02:08:36.369Z,16.90
2022-10-15T02:11:22.861Z,16.80
2022-10-15T02:14:23.417Z,16.90
2022-10-15T02:17:10.782Z,16.80
2022-10-15T02:20:12.002Z,16.80
2022-10-15T02:23:08.548Z,16.80
2022-10-15T02:25:57.421Z,16.90
2022-10-15T02:28:56.601Z,16.90
2022-10-15T02:31:45.352Z,16.90
2022-10-15T02:34:34.351Z,16.90
2022-10-15T02:37:24.341Z,16.90
2022-10-15T02:40:10.496Z,16.80
2022-10-15T02:42:56.902Z,16.80
2022-10-15T02:45:43.351Z,16.80
2022-10-15T02:48:29.612Z,16.70
2022-10-15T02:51:15.910Z,16.70
2022-10-15T02:54:03.822Z,16.70
2022-10-15T02:56:49.295Z,16.70
2022-10-15T02:59:37.353Z,16.70
2022-10-15T03:02:23.527Z,16.70
2022-10-15T03:05:09.656Z,16.70
2022-10-15T03:07:56.292Z,16.70
2022-10-15T03:10:43.446Z,16.70
2022-10-15T03:13:30.107Z,16.70
2022-10-15T03:16:16.000Z,16.60
2022-10-15T03:19:04.965Z,16.60
2022-10-15T03:21:50.869Z,16.60
2022-10-15T03:24:37.547Z,16.60
2022-10-15T03:27:24.617Z,16.60
2022-10-15T03:30:11.074Z,16.60
2022-10-15T03:32:58.065Z,16.60
2022-10-15T03:35:45.879Z,16.60
2022-10-15T03:38:32.644Z,16.50
2022-10-15T03:41:18.995Z,16.50
2022-10-15T03:44:08.933Z,16.40
2022-10-15T03:46:59.452Z,16.40
2022-10-15T03:49:51.625Z,16.50
2022-10-15T03:52:39.022Z,16.50
2022-10-15T03:55:25.208Z,16.50
2022-10-15T03:58:11.049Z,16.50
2022-10-15T04:01:12.628Z,16.50
2022-10-15T04:03:58.913Z,16.60
2022-10-15T04:06:47.874Z,16.60
2022-10-15T04:09:35.838Z,16.60
2022-10-15T04:12:44.893Z,16.60
2022-10-15T04:15:34.816Z,16.60
2022-10-15T04:18:26.490Z,16.50
2022-10-15T04:21:15.355Z,16.50
2022-10-15T04:24:05.463Z,16.50
2022-10-15T04:26:56.030Z,16.60
2022-10-15T04:29:42.107Z,16.50
2022-10-15T04:32:33.070Z,16.50
2022-10-15T04:35:20.140Z,16.60
2022-10-15T04:38:19.333Z,16.60
2022-10-15T04:41:15.234Z,16.60
2022-10-15T04:44:14.873Z,16.70
2022-10-15T04:47:06.847Z,16.60
2022-10-15T04:49:52.294Z,16.50
2022-10-15T04:53:07.945Z,16.60
2022-10-15T04:56:06.110Z,16.70
2022-10-15T04:58:52.016Z,16.70
2022-10-15T05:01:39.021Z,16.60
2022-10-15T05:04:29.714Z,16.60
2022-10-15T05:07:15.692Z,16.60
2022-10-15T05:10:02.033Z,16.60
2022-10-15T05:12:49.387Z,16.60
2022-10-15T05:15:46.314Z,16.60
2022-10-15T05:18:32.634Z,16.60
2022-10-15T05:21:19.685Z,16.70
2022-10-15T05:24:10.153Z,16.70
2022-10-15T05:27:12.851Z,16.70
2022-10-15T05:29:59.123Z,16.70
2022-10-15T05:32:54.695Z,16.70
2022-10-15T05:35:42.121Z,16.80
2022-10-15T05:38:28.890Z,16.80
2022-10-15T05:41:15.736Z,16.70
2022-10-15T05:44:01.373Z,16.80
2022-10-15T05:46:49.265Z,16.80
2022-10-15T05:49:42.330Z,16.80
2022-10-15T05:52:35.625Z,16.70
2022-10-15T05:55:34.588Z,16.60
2022-10-15T05:58:20.220Z,16.70
2022-10-15T06:01:08.977Z,16.80
2022-10-15T06:03:57.162Z,16.90
2022-10-15T06:06:45.331Z,16.90
2022-10-15T06:09:30.982Z,17.00
2022-10-15T06:12:17.051Z,16.90
2022-10-15T06:15:04.181Z,16.90
2022-10-15T06:17:55.161Z,16.90
2022-10-15T06:20:40.709Z,16.90
2022-10-15T06:23:27.021Z,16.90
2022-10-15T06:26:13.476Z,16.90
2022-10-15T06:29:01.181Z,16.90
2022-10-15T06:31:46.897Z,16.80
2022-10-15T06:34:33.033Z,16.80
2022-10-15T06:37:19.849Z,16.80
2022-10-15T06:40:06.720Z,16.80
2022-10-15T06:42:52.448Z,16.80
2022-10-15T06:45:41.756Z,16.80
2022-10-15T06:48:35.634Z,16.80
2022-10-15T06:51:22.112Z,16.80
2022-10-15T06:54:09.327Z,16.70
2022-10-15T06:56:54.741Z,16.80
2022-10-15T06:59:41.403Z,16.90
2022-10-15T07:02:27.552Z,17.00
2022-10-15T07:05:14.685Z,17.10
2022-10-15T07:08:01.298Z,17.10
2022-10-15T07:10:49.357Z,17.00
2022-10-15T07:13:35.591Z,17.10
2022-10-15T07:16:22.319Z,17.10
2022-10-15T07:19:08.491Z,17.10
2022-10-15T07:21:54.485Z,17.00
2022-10-15T07:24:40.480Z,17.00
2022-10-15T07:27:27.161Z,17.00
2022-10-15T07:30:13.817Z,17.00
2022-10-15T07:33:00.173Z,17.00
2022-10-15T07:35:46.173Z,17.00
2022-10-15T07:38:34.988Z,17.00
2022-10-15T07:41:22.212Z,17.10
2022-10-15T07:44:08.835Z,17.10
2022-10-15T07:46:54.424Z,17.20
2022-10-15T07:49:40.555Z,17.20
2022-10-15T07:52:27.442Z,17.20
2022-10-15T07:55:13.882Z,17.20
2022-10-15T07:58:00.201Z,17.20
2022-10-15T08:00:47.106Z,17.20
2022-10-15T08:03:33.387Z,17.30
2022-10-15T08:06:19.397Z,17.30
2022-10-15T08:09:05.940Z,17.40
2022-10-15T08:11:51.785Z,17.50
2022-10-15T08:14:38.909Z,17.60
2022-10-15T08:17:25.130Z,17.60
2022-10-15T08:20:12.816Z,17.60
2022-10-15T08:22:59.190Z,17.60
2022-10-15T08:25:44.870Z,17.70
2022-10-15T08:28:33.357Z,17.80
2022-10-15T08:31:19.428Z,17.80
2022-10-15T08:34:05.600Z,17.70
2022-10-15T08:36:51.319Z,17.80
2022-10-15T08:39:36.705Z,18.00
2022-10-15T08:42:38.361Z,18.10
2022-10-15T08:45:31.038Z,18.00
2022-10-15T08:48:42.765Z,18.10
2022-10-15T08:51:42.323Z,18.10
2022-10-15T08:54:28.745Z,18.30
2022-10-15T08:57:29.083Z,18.30
2022-10-15T09:00:47.836Z,18.40
2022-10-15T09:03:59.387Z,18.30
2022-10-15T09:06:46.297Z,18.30
2022-10-15T09:09:44.369Z,18.50
2022-10-15T09:12:48.133Z,18.50
2022-10-15T09:15:41.526Z,18.70
2022-10-15T09:18:32.346Z,18.70
2022-10-15T09:21:20.084Z,18.80
2022-10-15T09:24:07.042Z,18.80
2022-10-15T09:26:58.814Z,18.80
2022-10-15T09:29:46.093Z,18.90
2022-10-15T09:32:47.603Z,19.00
2022-10-15T09:35:52.224Z,19.10
2022-10-15T09:38:47.177Z,19.20
2022-10-15T09:41:56.372Z,19.20
2022-10-15T09:44:44.932Z,19.20
2022-10-15T09:47:34.822Z,19.40
2022-10-15T09:50:21.077Z,19.60
2022-10-15T09:53:31.802Z,19.70
2022-10-15T09:56:22.986Z,19.70
2022-10-15T09:59:19.073Z,19.70
2022-10-15T10:02:16.784Z,19.70
2022-10-15T10:05:29.540Z,19.90
2022-10-15T10:08:20.578Z,20.20
2022-10-15T10:11:11.280Z,20.30
2022-10-15T10:13:59.526Z,20.30
2022-10-15T10:17:06.706Z,20.40
2022-10-15T10:20:17.120Z,20.60
2022-10-15T10:23:24.311Z,20.80
2022-10-15T10:26:12.073Z,20.90
2022-10-15T10:29:04.968Z,21.00
2022-10-15T10:31:52.848Z,21.20
2022-10-15T10:34:52.903Z,21.20
2022-10-15T10:37:43.265Z,21.30
2022-10-15T10:40:35.112Z,21.50
2022-10-15T10:43:29.699Z,21.60
2022-10-15T10:46:15.786Z,21.60
2022-10-15T10:49:06.105Z,21.60
2022-10-15T10:51:52.366Z,21.70
2022-10-15T10:54:38.654Z,21.70
2022-10-15T10:57:44.629Z,21.60
2022-10-15T11:00:41.084Z,21.40
2022-10-15T11:03:27.563Z,21.30
2022-10-15T11:06:37.594Z,21.40
2022-10-15T11:09:46.558Z,21.50
2022-10-15T11:12:38.509Z,21.60
2022-10-15T11:15:52.465Z,21.60
2022-10-15T11:19:19.703Z,21.80
2022-10-15T11:22:45.182Z,22.00
2022-10-15T11:25:48.074Z,22.00
2022-10-15T11:28:59.771Z,22.20
2022-10-15T11:32:10.264Z,22.40
2022-10-15T11:35:16.974Z,22.40
2022-10-15T11:38:29.476Z,22.50
2022-10-15T11:41:18.042Z,22.60
2022-10-15T11:44:28.906Z,22.60
2022-10-15T11:47:36.166Z,22.50
2022-10-15T11:50:27.810Z,22.50
2022-10-15T11:53:38.009Z,22.70
2022-10-15T11:56:38.033Z,22.90
2022-10-15T11:59:31.123Z,23.10
2022-10-15T12:02:17.210Z,23.30
2022-10-15T12:05:13.206Z,23.40
2022-10-15T12:07:59.378Z,23.40
2022-10-15T12:11:03.314Z,23.20
2022-10-15T12:14:05.045Z,23.40
2022-10-15T12:20:19.183Z,23.70
2022-10-15T12:23:05.185Z,23.50
2022-10-15T12:25:50.782Z,23.20
2022-10-15T12:28:36.707Z,23.20
2022-10-15T12:31:23.934Z,23.10
2022-10-15T12:34:27.349Z,23.30
2022-10-15T12:37:19.106Z,23.60
2022-10-15T12:40:26.381Z,23.50
2022-10-15T12:43:18.389Z,23.60
2022-10-15T12:46:08.432Z,23.90
2022-10-15T12:48:58.046Z,24.10
2022-10-15T12:51:43.798Z,24.40
2022-10-15T12:54:47.084Z,24.50
2022-10-15T12:57:38.682Z,24.60
2022-10-15T13:00:32.479Z,24.70
2022-10-15T13:03:37.129Z,24.80
2022-10-15T13:06:23.090Z,25.00
2022-10-15T13:09:21.510Z,24.90
2022-10-15T13:12:19.709Z,25.10
2022-10-15T13:15:07.138Z,25.20
2022-10-15T13:17:58.153Z,25.50
2022-10-15T13:20:47.541Z,25.30
2022-10-15T13:23:34.706Z,25.40
2022-10-15T13:26:27.342Z,25.40
2022-10-15T13:29:21.629Z,25.90
2022-10-15T13:32:14.905Z,26.40
2022-10-15T13:35:02.230Z,27.50
2022-10-15T13:37:49.002Z,28.30
2022-10-15T13:40:35.638Z,29.30
2022-10-15T13:43:24.899Z,30.20
2022-10-15T13:46:15.715Z,29.90
2022-10-15T13:49:12.509Z,29.90
2022-10-15T13:51:58.756Z,29.90
2022-10-15T13:54:46.950Z,30.40
2022-10-15T13:57:33.242Z,28.50
2022-10-15T14:00:27.152Z,28.40
2022-10-15T14:03:32.207Z,28.50
2022-10-15T14:06:24.445Z,28.20
2022-10-15T14:09:20.673Z,29.00
2022-10-15T14:12:08.250Z,29.20
2022-10-15T14:14:53.673Z,28.50
2022-10-15T14:17:39.808Z,27.40
2022-10-15T14:20:27.781Z,26.70
2022-10-15T14:23:32.243Z,26.20
2022-10-15T14:26:24.794Z,25.70
2022-10-15T14:29:19.498Z,25.40
2022-10-15T14:32:24.412Z,25.30
2022-10-15T14:35:27.426Z,25.40
2022-10-15T14:38:13.141Z,25.90
2022-10-15T14:41:03.577Z,25.60
2022-10-15T14:44:17.812Z,25.50
2022-10-15T14:47:03.519Z,25.30
2022-10-15T14:49:53.711Z,25.10
2022-10-15T14:52:45.785Z,25.00
2022-10-15T14:55:43.340Z,24.90
2022-10-15T14:58:30.576Z,24.70
2022-10-15T15:01:16.301Z,24.50
2022-10-15T15:04:02.249Z,24.30
2022-10-15T15:06:48.717Z,24.20
2022-10-15T15:09:34.426Z,24.20
2022-10-15T15:12:25.638Z,24.10
2022-10-15T15:15:16.687Z,24.00
2022-10-15T15:18:02.992Z,24.00
2022-10-15T15:20:50.975Z,23.90
2022-10-15T15:23:36.632Z,23.80
2022-10-15T15:26:22.400Z,23.80
2022-10-15T15:29:14.625Z,23.70
2022-10-15T15:32:00.083Z,24.00
2022-10-15T15:37:49.145Z,24.40
2022-10-15T15:40:35.857Z,24.30
2022-10-15T15:43:21.379Z,24.00
2022-10-15T15:46:07.179Z,23.80
2022-10-15T15:48:52.871Z,23.70
2022-10-15T15:51:41.663Z,23.80
2022-10-15T15:54:27.502Z,23.70
2022-10-15T15:57:14.104Z,23.60
2022-10-15T16:00:01.066Z,23.50
2022-10-15T16:02:48.165Z,23.40
2022-10-15T16:05:33.643Z,23.30
2022-10-15T16:08:19.717Z,23.20
2022-10-15T16:11:07.309Z,23.10
2022-10-15T16:13:53.527Z,22.90
2022-10-15T16:16:40.043Z,22.80
2022-10-15T16:19:26.377Z,22.70
2022-10-15T16:22:13.258Z,22.60
2022-10-15T16:24:59.302Z,22.60
2022-10-15T16:27:51.925Z,22.40
2022-10-15T16:30:38.477Z,22.30
2022-10-15T16:33:24.373Z,22.30
2022-10-15T16:36:11.094Z,22.20
2022-10-15T16:38:57.930Z,22.10
2022-10-15T16:41:44.383Z,22.00
2022-10-15T16:44:30.463Z,21.90
2022-10-15T16:47:16.703Z,21.90
2022-10-15T16:50:03.312Z,21.80
2022-10-15T16:52:48.981Z,21.80
2022-10-15T16:55:35.809Z,21.70
2022-10-15T16:58:22.521Z,21.60
2022-10-15T17:01:12.253Z,21.50
2022-10-15T17:03:59.375Z,21.50
2022-10-15T17:06:46.032Z,21.50
2022-10-15T17:09:32.387Z,21.40
2022-10-15T17:12:18.486Z,21.40
2022-10-15T17:15:04.351Z,21.40
2022-10-15T17:17:50.191Z,21.30
2022-10-15T17:20:47.196Z,21.30
2022-10-15T17:23:34.357Z,21.30
2022-10-15T17:26:23.478Z,21.20
2022-10-15T17:29:16.352Z,21.20
2022-10-15T17:32:03.004Z,21.10
2022-10-15T17:34:49.398Z,21.10
2022-10-15T17:40:26.848Z,21.00
2022-10-15T17:43:12.426Z,21.00
2022-10-15T17:46:03.157Z,20.90
2022-10-15T17:48:49.755Z,20.90
2022-10-15T17:51:35.828Z,20.90
2022-10-15T17:54:25.248Z,20.80
2022-10-15T17:57:11.129Z,20.80
2022-10-15T17:59:56.948Z,20.80
2022-10-15T18:02:43.300Z,20.80
2022-10-15T18:05:29.862Z,20.80
2022-10-15T18:08:17.249Z,20.70
2022-10-15T18:11:04.526Z,20.70
2022-10-15T18:13:51.905Z,20.70
2022-10-15T18:16:37.721Z,20.60
2022-10-15T18:19:25.747Z,20.60
2022-10-15T18:22:12.832Z,20.60
2022-10-15T18:24:58.808Z,20.50
2022-10-15T18:27:45.549Z,20.50
2022-10-15T18:30:31.765Z,20.50
2022-10-15T18:33:17.520Z,20.50
2022-10-15T18:36:24.686Z,20.40
2022-10-15T18:39:11.503Z,20.40
2022-10-15T18:41:58.054Z,20.40
2022-10-15T18:44:43.832Z,20.40
2022-10-15T18:47:29.452Z,20.30
2022-10-15T18:50:15.545Z,20.30
2022-10-15T18:53:03.158Z,20.30
2022-10-15T18:55:48.688Z,20.30
2022-10-15T18:58:34.315Z,20.40
2022-10-15T19:01:33.602Z,20.30
2022-10-15T19:04:26.871Z,20.40
2022-10-15T19:07:13.145Z,20.40
2022-10-15T19:09:59.145Z,20.30
2022-10-15T19:12:45.578Z,20.30
2022-10-15T19:15:31.202Z,20.30
2022-10-15T19:18:17.580Z,20.30
2022-10-15T19:21:04.848Z,20.20
2022-10-15T19:23:50.565Z,20.20
2022-10-15T19:26:37.186Z,20.10
2022-10-15T19:29:24.262Z,20.20
2022-10-15T19:32:11.543Z,20.20
2022-10-15T19:34:57.205Z,20.20
2022-10-15T19:37:43.637Z,20.20
2022-10-15T19:40:29.893Z,20.30
2022-10-15T19:43:16.101Z,20.30
2022-10-15T19:46:03.826Z,20.20
2022-10-15T19:48:50.355Z,20.30
2022-10-15T19:51:40.577Z,20.20
2022-10-15T19:54:26.644Z,20.30
2022-10-15T19:57:12.652Z,20.30
2022-10-15T19:59:58.728Z,20.20
2022-10-15T20:02:44.880Z,20.20
2022-10-15T20:05:31.164Z,20.20
2022-10-15T20:08:18.633Z,20.10
2022-10-15T20:11:08.718Z,20.00
2022-10-15T20:13:54.767Z,20.00
2022-10-15T20:16:40.852Z,20.10
2022-10-15T20:19:27.347Z,20.10
2022-10-15T20:22:12.935Z,20.10
2022-10-15T20:24:59.917Z,20.10
2022-10-15T20:27:45.705Z,20.10
2022-10-15T20:30:32.460Z,20.00
2022-10-15T20:33:18.317Z,19.90
2022-10-15T20:36:09.378Z,19.90
2022-10-15T20:38:57.229Z,19.90
2022-10-15T20:41:42.738Z,19.90
2022-10-15T20:44:28.200Z,19.90
2022-10-15T20:47:16.271Z,20.00
2022-10-15T20:50:03.390Z,20.00
2022-10-15T20:52:49.477Z,20.00
2022-10-15T20:55:35.952Z,20.10
2022-10-15T20:58:22.060Z,20.10
2022-10-15T21:01:08.686Z,20.10
2022-10-15T21:03:54.593Z,20.00
2022-10-15T21:06:40.497Z,20.00
2022-10-15T21:09:27.001Z,20.00
2022-10-15T21:12:13.484Z,20.00
2022-10-15T21:14:59.724Z,20.00
2022-10-15T21:17:46.056Z,20.00
2022-10-15T21:20:32.083Z,19.90
2022-10-15T21:23:18.343Z,19.90
2022-10-15T21:26:06.013Z,19.90
2022-10-15T21:28:59.736Z,19.90
2022-10-15T21:31:45.569Z,19.90
2022-10-15T21:34:31.860Z,19.90
2022-10-15T21:37:18.357Z,19.90
2022-10-15T21:40:05.930Z,19.80
2022-10-15T21:42:52.233Z,19.70
2022-10-15T21:45:38.016Z,19.70
2022-10-15T21:48:24.812Z,19.80
2022-10-15T21:51:19.445Z,19.80
2022-10-15T21:54:07.275Z,19.80
2022-10-15T21:56:53.109Z,19.70
2022-10-15T21:59:38.945Z,19.80
2022-10-15T22:02:24.880Z,19.70
2022-10-15T22:05:11.414Z,19.70
2022-10-15T22:07:57.320Z,19.70
2022-10-15T22:10:42.649Z,19.80
2022-10-15T22:13:28.306Z,19.80
2022-10-15T22:16:15.660Z,19.70
2022-10-15T22:19:02.345Z,19.50
2022-10-15T22:21:49.270Z,19.40
2022-10-15T22:24:35.343Z,19.50
2022-10-15T22:27:21.513Z,19.50
2022-10-15T22:30:08.534Z,19.50
2022-10-15T22:32:54.636Z,19.50
2022-10-15T22:35:41.062Z,19.50
2022-10-15T22:38:27.405Z,19.50
2022-10-15T22:41:14.512Z,19.50
2022-10-15T22:44:00.510Z,19.40
2022-10-15T22:46:49.206Z,19.40
2022-10-15T22:49:35.928Z,19.40
2022-10-15T22:52:22.456Z,19.50
2022-10-15T22:55:08.826Z,19.50
2022-10-15T22:57:54.680Z,19.40
2022-10-15T23:00:41.755Z,19.40
2022-10-15T23:03:29.595Z,19.30
2022-10-15T23:06:17.335Z,19.30
2022-10-15T23:09:04.735Z,19.30
2022-10-15T23:11:50.946Z,19.20
2022-10-15T23:14:37.316Z,19.20
2022-10-15T23:20:13.878Z,19.30
2022-10-15T23:22:59.576Z,19.30
2022-10-15T23:25:45.147Z,19.30
2022-10-15T23:28:31.371Z,19.30
2022-10-15T23:31:18.508Z,19.20
2022-10-15T23:34:05.910Z,19.20
2022-10-15T23:36:52.930Z,19.20
2022-10-15T23:39:40.484Z,19.30
2022-10-15T23:42:26.390Z,19.20
2022-10-15T23:45:12.219Z,19.20
2022-10-15T23:47:57.994Z,19.20
2022-10-15T23:50:44.420Z,19.20
2022-10-15T23:53:33.268Z,19.20
2022-10-15T23:56:19.850Z,19.20
2022-10-15T23:59:05.760Z,19.20
